Time;durP1;ratioP1;P1;durP2;ratioP2;P2;SDS_P1;SDS_P2;PMS_P1;PMS_P2;Temp;Humidity;BMP_temperature;BMP_pressure;BME280_temperature;BME280_humidity;BME280_pressure;Samples;Min_cycle;Max_cycle;Signal;HPM_P1;HPM_P2
2022/09/13 00:01:38;;;;;;;9.80;9.50;;;14.20;99.90;;;;;;5060743;28;20252;-80
2022/09/13 00:04:07;;;;;;;10.00;9.70;;;14.20;99.90;;;;;;5061657;28;20236;-81
2022/09/13 00:06:37;;;;;;;9.67;9.37;;;14.10;99.90;;;;;;5060681;28;20297;-81
2022/09/13 00:09:06;;;;;;;9.70;9.40;;;14.10;99.90;;;;;;5060873;28;20298;-79
2022/09/13 00:11:36;;;;;;;9.90;9.60;;;14.10;99.90;;;;;;5061177;28;20231;-81
2022/09/13 00:14:05;;;;;;;9.77;9.47;;;14.10;99.90;;;;;;5061463;28;20245;-81
2022/09/13 00:16:38;;;;;;;9.93;9.63;;;14.10;99.90;;;;;;5060868;28;20694;-81
2022/09/13 00:21:51;;;;;;;9.90;9.60;;;14.00;99.90;;;;;;5080455;28;20240;-81
2022/09/13 00:24:21;;;;;;;9.97;9.67;;;14.00;99.90;;;;;;5080386;28;20290;-81
2022/09/13 00:26:50;;;;;;;10.00;9.70;;;14.00;99.90;;;;;;5066279;28;20235;-80
2022/09/13 00:29:20;;;;;;;10.10;9.80;;;13.90;99.90;;;;;;5074376;28;20289;-81
2022/09/13 00:34:36;;;;;;;9.63;9.33;;;13.90;99.90;;;;;;5069172;28;20230;-81
2022/09/13 00:37:05;;;;;;;9.43;9.13;;;13.90;99.90;;;;;;5068384;28;20324;-81
2022/09/13 00:39:37;;;;;;;9.90;9.60;;;13.90;99.90;;;;;;5060484;28;20341;-80
2022/09/13 00:42:06;;;;;;;9.60;9.30;;;13.90;99.90;;;;;;5060705;28;20318;-81
2022/09/13 00:45:02;;;;;;;9.80;9.50;;;13.90;99.90;;;;;;5060688;28;20325;-81
2022/09/13 00:47:41;;;;;;;9.53;9.23;;;13.90;99.90;;;;;;5059936;28;20245;-80
2022/09/13 00:50:18;;;;;;;9.80;9.50;;;13.80;99.90;;;;;;5063530;28;20221;-80
2022/09/13 00:52:58;;;;;;;9.50;9.20;;;13.80;99.90;;;;;;5070686;28;20234;-81
2022/09/13 00:55:38;;;;;;;9.80;9.50;;;13.70;99.90;;;;;;5065650;28;20234;-81
2022/09/13 00:58:14;;;;;;;9.57;9.27;;;13.70;99.90;;;;;;5062181;28;20289;-81
2022/09/13 01:00:43;;;;;;;9.67;9.37;;;13.70;99.90;;;;;;5073590;28;20234;-80
2022/09/13 01:03:21;;;;;;;9.87;9.57;;;13.70;99.90;;;;;;5084001;28;20253;-81
2022/09/13 01:06:00;;;;;;;9.67;9.37;;;13.70;99.90;;;;;;5085018;28;20233;-80
2022/09/13 01:08:30;;;;;;;9.43;9.13;;;13.70;99.90;;;;;;5084868;28;20242;-80
2022/09/13 01:11:00;;;;;;;9.13;8.83;;;13.70;99.90;;;;;;5084798;28;20222;-80
2022/09/13 01:13:31;;;;;;;8.87;8.67;;;13.70;99.90;;;;;;5084721;28;20222;-80
2022/09/13 01:15:59;;;;;;;9.00;8.80;;;13.70;99.90;;;;;;5083904;28;20312;-80
2022/09/13 01:18:29;;;;;;;8.80;8.60;;;13.70;99.90;;;;;;5082854;28;20297;-81
2022/09/13 01:21:48;;;;;;;9.10;8.80;;;13.80;99.90;;;;;;5083935;28;20254;-80
2022/09/13 01:24:45;;;;;;;9.10;8.80;;;13.80;99.90;;;;;;5054289;28;20220;-81
2022/09/13 01:27:51;;;;;;;9.13;8.83;;;13.80;99.90;;;;;;5074765;28;20256;-81
2022/09/13 01:30:30;;;;;;;9.00;8.70;;;13.80;99.90;;;;;;5083885;28;20240;-81
2022/09/13 01:33:50;;;;;;;8.67;8.47;;;13.80;99.90;;;;;;5083026;28;20236;-80
2022/09/13 01:36:48;;;;;;;9.10;8.80;;;13.80;99.90;;;;;;5082690;28;20260;-81
2022/09/13 01:39:26;;;;;;;9.13;8.83;;;13.80;99.90;;;;;;5082569;28;20317;-81
2022/09/13 01:45:15;;;;;;;8.87;8.67;;;13.70;99.90;;;;;;5079667;28;20299;-81
2022/09/13 01:47:55;;;;;;;8.80;8.60;;;13.70;99.90;;;;;;5082816;28;20336;-81
2022/09/13 01:50:33;;;;;;;8.80;8.60;;;13.70;99.90;;;;;;5083505;28;20281;-80
2022/09/13 01:53:09;;;;;;;9.40;9.10;;;13.70;99.90;;;;;;5083629;28;20229;-80
2022/09/13 01:58:35;;;;;;;9.00;8.80;;;13.60;99.90;;;;;;5083034;28;20306;-80
2022/09/13 02:01:14;;;;;;;8.87;8.67;;;13.60;99.90;;;;;;5084587;28;20245;-81
2022/09/13 02:03:54;;;;;;;8.83;8.63;;;13.60;99.90;;;;;;5088902;28;20237;-80
2022/09/13 02:06:29;;;;;;;9.00;8.70;;;13.50;99.90;;;;;;5086473;28;20297;-80
2022/09/13 02:09:02;;;;;;;9.10;8.80;;;13.50;99.90;;;;;;5084681;28;20237;-81
2022/09/13 02:11:29;;;;;;;9.23;8.93;;;13.40;99.90;;;;;;5083049;28;20234;-80
2022/09/13 02:14:10;;;;;;;9.20;8.90;;;13.30;99.90;;;;;;5083279;28;20244;-81
2022/09/13 02:16:45;;;;;;;9.57;9.27;;;13.20;99.90;;;;;;5082952;28;20253;-81
2022/09/13 02:19:23;;;;;;;9.50;9.20;;;13.20;99.90;;;;;;5082440;28;20791;-82
2022/09/13 02:24:42;;;;;;;9.50;9.20;;;13.10;99.90;;;;;;5081000;28;20234;-81
2022/09/13 02:27:19;;;;;;;9.60;9.30;;;13.10;99.90;;;;;;5081913;28;20264;-81
2022/09/13 02:29:56;;;;;;;9.50;9.20;;;13.00;99.90;;;;;;5082767;28;20228;-81
2022/09/13 02:32:29;;;;;;;9.30;9.00;;;13.00;99.90;;;;;;5082585;28;20230;-81
2022/09/13 02:35:05;;;;;;;9.30;9.00;;;13.00;99.90;;;;;;5082275;28;20233;-81
2022/09/13 02:37:36;;;;;;;9.20;8.90;;;12.90;99.90;;;;;;5082052;28;20311;-81
2022/09/13 02:43:00;;;;;;;9.17;8.87;;;12.90;99.90;;;;;;5081681;28;20248;-81
2022/09/13 02:48:26;;;;;;;8.83;8.63;;;12.80;99.90;;;;;;5081622;28;20229;-81
2022/09/13 02:51:04;;;;;;;8.97;8.70;;;12.80;99.90;;;;;;5084032;28;20222;-80
2022/09/13 02:53:42;;;;;;;9.07;8.77;;;12.80;99.90;;;;;;5082681;28;20225;-81
2022/09/13 02:56:23;;;;;;;8.87;8.67;;;12.80;99.90;;;;;;5081665;28;20330;-80
2022/09/13 02:58:59;;;;;;;8.53;8.33;;;12.80;99.90;;;;;;5081362;28;20242;-81
2022/09/13 03:01:28;;;;;;;9.00;8.70;;;12.80;99.90;;;;;;5082239;28;20316;-81
2022/09/13 03:03:57;;;;;;;9.33;9.03;;;12.70;99.90;;;;;;5082619;28;20235;-81
2022/09/13 03:06:39;;;;;;;8.90;8.70;;;12.70;99.90;;;;;;5081469;28;20293;-82
2022/09/13 03:09:07;;;;;;;9.10;8.80;;;12.70;99.90;;;;;;5082264;28;20237;-81
2022/09/13 03:12:01;;;;;;;8.90;8.70;;;12.70;99.90;;;;;;5081181;28;20281;-81
2022/09/13 03:14:42;;;;;;;8.90;8.70;;;12.70;99.90;;;;;;5081117;28;20234;-81
2022/09/13 03:17:33;;;;;;;8.83;8.63;;;12.70;99.90;;;;;;5081572;28;20233;-81
2022/09/13 03:20:13;;;;;;;8.50;8.30;;;12.70;99.90;;;;;;5081499;28;20320;-81
2022/09/13 03:23:17;;;;;;;8.60;8.40;;;12.70;99.90;;;;;;5081438;28;20325;-80
2022/09/13 03:26:13;;;;;;;8.20;8.00;;;12.60;99.90;;;;;;5080243;28;20226;-81
2022/09/13 03:28:52;;;;;;;8.53;8.33;;;12.60;99.90;;;;;;5084797;28;20288;-80
2022/09/13 03:31:30;;;;;;;8.40;8.20;;;12.60;99.90;;;;;;5099985;28;20252;-79
2022/09/13 03:34:01;;;;;;;8.40;8.20;;;12.70;99.90;;;;;;5100017;28;20266;-79
2022/09/13 03:36:38;;;;;;;8.30;8.10;;;12.70;99.90;;;;;;5093809;28;20297;-81
2022/09/13 03:39:18;;;;;;;8.40;8.20;;;12.70;99.90;;;;;;5084714;28;20249;-81
2022/09/13 03:41:54;;;;;;;8.50;8.30;;;12.70;99.90;;;;;;5083904;28;20236;-81
2022/09/13 03:44:25;;;;;;;8.70;8.50;;;12.60;99.90;;;;;;5084205;28;20233;-79
2022/09/13 03:46:56;;;;;;;8.60;8.40;;;12.60;99.90;;;;;;5082810;28;20230;-80
2022/09/13 03:49:27;;;;;;;8.70;8.50;;;12.60;99.90;;;;;;5082415;28;20234;-81
2022/09/13 03:54:48;;;;;;;8.50;8.30;;;12.60;99.90;;;;;;5079832;28;20257;-80
2022/09/13 03:57:17;;;;;;;8.30;8.10;;;12.60;99.90;;;;;;5081868;28;20283;-81
2022/09/13 03:59:48;;;;;;;8.33;8.13;;;12.60;99.90;;;;;;5081494;28;20288;-81
2022/09/13 04:02:16;;;;;;;8.17;7.97;;;12.60;99.90;;;;;;5081342;28;20248;-81
2022/09/13 04:04:46;;;;;;;8.53;8.33;;;12.60;99.90;;;;;;5081303;28;20246;-81
2022/09/13 04:07:15;;;;;;;8.50;8.30;;;12.50;99.90;;;;;;5081421;28;20238;-81
2022/09/13 04:09:54;;;;;;;8.60;8.40;;;12.50;99.90;;;;;;5081459;28;20249;-80
2022/09/13 04:12:22;;;;;;;8.50;8.30;;;12.50;99.90;;;;;;5081373;28;20252;-81
2022/09/13 04:14:52;;;;;;;8.50;8.30;;;12.50;99.90;;;;;;5081034;28;20274;-81
2022/09/13 04:17:21;;;;;;;8.60;8.40;;;12.40;99.90;;;;;;5079846;28;20236;-81
2022/09/13 04:19:51;;;;;;;8.77;8.57;;;12.40;99.90;;;;;;5081018;28;20230;-81
2022/09/13 04:22:20;;;;;;;8.60;8.40;;;12.30;99.90;;;;;;5080229;28;20263;-81
2022/09/13 04:24:58;;;;;;;8.50;8.30;;;12.30;99.90;;;;;;5080792;28;20309;-81
2022/09/13 04:27:28;;;;;;;9.10;8.80;;;12.30;99.90;;;;;;5080632;28;20281;-80
2022/09/13 04:29:57;;;;;;;9.30;9.00;;;12.30;99.90;;;;;;5080110;28;20313;-81
2022/09/13 04:32:27;;;;;;;9.27;8.97;;;12.30;99.90;;;;;;5080734;28;20261;-81
2022/09/13 04:34:56;;;;;;;9.40;9.10;;;12.40;99.90;;;;;;5082612;28;20257;-81
2022/09/13 04:37:26;;;;;;;9.30;9.00;;;12.40;99.90;;;;;;5086736;28;20267;-81
2022/09/13 04:40:00;;;;;;;9.10;8.80;;;12.40;99.90;;;;;;5086045;28;20317;-81
2022/09/13 04:42:27;;;;;;;9.30;9.00;;;12.30;99.90;;;;;;5084968;28;20284;-81
2022/09/13 04:44:56;;;;;;;9.50;9.20;;;12.30;99.90;;;;;;5084254;28;20229;-81
2022/09/13 04:47:26;;;;;;;9.60;9.30;;;12.40;99.90;;;;;;5084356;28;20240;-81
2022/09/13 04:49:55;;;;;;;9.70;9.40;;;12.30;99.90;;;;;;5084180;28;20230;-81
2022/09/13 04:52:24;;;;;;;9.77;9.47;;;12.40;99.90;;;;;;5084450;28;20234;-81
2022/09/13 04:54:53;;;;;;;9.87;9.57;;;12.40;99.90;;;;;;5083418;28;20240;-81
2022/09/13 04:57:26;;;;;;;9.70;9.40;;;12.50;99.90;;;;;;5083693;28;20230;-81
2022/09/13 04:59:54;;;;;;;8.87;8.67;;;12.50;99.90;;;;;;5084300;28;20800;-81
2022/09/13 05:02:22;;;;;;;9.00;8.80;;;12.50;99.90;;;;;;5083308;28;20245;-81
2022/09/13 05:04:51;;;;;;;9.30;9.00;;;12.50;99.90;;;;;;5083253;28;20343;-81
2022/09/13 05:07:21;;;;;;;9.33;9.03;;;12.60;99.90;;;;;;5082735;28;20244;-81
2022/09/13 05:09:50;;;;;;;9.17;8.87;;;12.40;99.90;;;;;;5083239;28;20343;-80
2022/09/13 05:12:19;;;;;;;9.23;8.93;;;12.30;99.90;;;;;;5082914;28;20222;-80
2022/09/13 05:14:58;;;;;;;9.23;8.93;;;12.30;99.90;;;;;;5082510;28;20286;-80
2022/09/13 05:17:27;;;;;;;9.43;9.13;;;12.30;99.90;;;;;;5082920;28;20332;-81
2022/09/13 05:19:54;;;;;;;9.30;9.00;;;12.30;99.90;;;;;;5104513;22;20266;-79
2022/09/13 05:22:26;;;;;;;9.60;9.30;;;12.30;99.90;;;;;;5082176;28;20281;-79
2022/09/13 05:24:55;;;;;;;9.30;9.00;;;12.30;99.90;;;;;;5073944;28;20218;-78
2022/09/13 05:27:25;;;;;;;9.47;9.17;;;12.30;99.90;;;;;;5084716;28;20237;-80
2022/09/13 05:30:06;;;;;;;9.43;9.13;;;12.30;99.90;;;;;;5083022;28;20238;-80
2022/09/13 05:32:34;;;;;;;9.43;9.13;;;12.30;99.90;;;;;;5083789;28;20237;-80
2022/09/13 05:35:02;;;;;;;9.60;9.30;;;12.40;99.90;;;;;;5083771;28;20252;-80
2022/09/13 05:37:31;;;;;;;9.30;9.00;;;12.40;99.90;;;;;;5070920;28;20230;-79
2022/09/13 05:40:02;;;;;;;9.60;9.30;;;12.50;99.90;;;;;;5081053;28;20240;-80
2022/09/13 05:42:31;;;;;;;9.40;9.10;;;12.50;99.90;;;;;;5093750;28;20282;-80
2022/09/13 05:45:07;;;;;;;9.70;9.40;;;12.60;99.90;;;;;;5092775;28;20279;-80
2022/09/13 05:47:37;;;;;;;9.60;9.30;;;12.60;99.90;;;;;;5087437;28;20248;-79
2022/09/13 05:50:07;;;;;;;9.57;9.27;;;12.70;99.90;;;;;;5086455;28;20342;-80
2022/09/13 05:52:36;;;;;;;9.60;9.30;;;12.80;99.90;;;;;;5084982;28;20234;-80
2022/09/13 05:55:06;;;;;;;9.60;9.30;;;12.90;99.90;;;;;;5082923;28;20319;-80
2022/09/13 05:57:36;;;;;;;9.60;9.30;;;13.00;99.90;;;;;;5083787;28;20321;-80
2022/09/13 06:00:06;;;;;;;9.77;9.47;;;13.10;99.90;;;;;;5083782;28;20237;-80
2022/09/13 06:02:35;;;;;;;10.00;9.70;;;13.20;99.90;;;;;;5082129;28;20438;-81
2022/09/13 06:05:04;;;;;;;9.80;9.50;;;13.30;99.90;;;;;;5083453;28;20230;-81
2022/09/13 06:07:34;;;;;;;9.97;9.67;;;13.50;99.90;;;;;;5076082;28;20235;-81
2022/09/13 06:10:05;;;;;;;9.87;9.57;;;13.70;99.90;;;;;;5072369;28;20238;-82
2022/09/13 06:12:33;;;;;;;9.90;9.60;;;13.80;99.90;;;;;;5064761;28;20219;-82
2022/09/13 06:15:02;;;;;;;9.87;9.57;;;13.90;99.90;;;;;;5063117;28;20219;-82
2022/09/13 06:17:41;;;;;;;10.17;9.87;;;13.90;99.90;;;;;;5057564;28;20327;-82
2022/09/13 06:20:10;;;;;;;9.80;9.50;;;13.90;99.90;;;;;;5047179;28;20302;-82
2022/09/13 06:22:39;;;;;;;9.83;9.53;;;13.90;99.90;;;;;;5079353;28;20239;-83
2022/09/13 06:25:08;;;;;;;9.80;9.50;;;13.90;99.90;;;;;;5069253;28;20231;-83
2022/09/13 06:27:38;;;;;;;9.70;9.40;;;13.90;99.90;;;;;;5071554;28;20387;-83
2022/09/13 06:30:07;;;;;;;10.03;9.73;;;14.00;99.90;;;;;;5055332;28;20307;-82
2022/09/13 06:32:38;;;;;;;10.03;9.73;;;14.00;99.90;;;;;;5049951;28;20290;-81
2022/09/13 06:35:07;;;;;;;9.70;9.40;;;14.00;99.90;;;;;;5092736;28;20291;-80
2022/09/13 06:37:35;;;;;;;9.83;9.53;;;14.00;99.90;;;;;;5082921;28;20251;-80
2022/09/13 06:40:08;;;;;;;9.70;9.40;;;14.00;99.90;;;;;;5064813;28;20238;-81
2022/09/13 06:42:37;;;;;;;9.80;9.50;;;14.10;99.90;;;;;;5065453;28;20226;-82
2022/09/13 06:45:06;;;;;;;9.70;9.40;;;14.10;99.90;;;;;;5063952;28;20211;-82
2022/09/13 06:47:35;;;;;;;9.73;9.43;;;14.20;99.90;;;;;;5063181;28;20235;-81
2022/09/13 06:50:12;;;;;;;9.90;9.60;;;14.20;99.90;;;;;;5061660;28;20302;-81
2022/09/13 06:52:44;;;;;;;9.80;9.50;;;14.30;99.90;;;;;;5061120;28;20288;-81
2022/09/13 06:55:13;;;;;;;9.80;9.50;;;14.40;99.90;;;;;;5060845;28;20238;-81
2022/09/13 06:57:42;;;;;;;9.70;9.40;;;14.50;99.90;;;;;;5059677;28;20254;-81
2022/09/13 07:00:12;;;;;;;9.63;9.33;;;14.60;99.90;;;;;;5060250;28;20262;-81
2022/09/13 07:02:41;;;;;;;9.60;9.30;;;14.70;99.90;;;;;;5060501;28;20241;-82
2022/09/13 07:05:19;;;;;;;10.00;9.70;;;14.70;99.90;;;;;;5067653;28;20230;-81
2022/09/13 07:07:49;;;;;;;9.50;9.20;;;14.80;99.90;;;;;;5069326;28;20234;-81
2022/09/13 07:10:18;;;;;;;9.67;9.37;;;14.90;99.90;;;;;;5060957;28;20289;-81
2022/09/13 07:12:47;;;;;;;9.80;9.50;;;14.90;99.90;;;;;;5072989;28;20230;-80
2022/09/13 07:15:17;;;;;;;9.57;9.27;;;15.00;99.90;;;;;;5061056;28;20743;-81
2022/09/13 07:17:57;;;;;;;9.70;9.40;;;15.10;99.90;;;;;;5076136;28;20294;-82
2022/09/13 07:20:27;;;;;;;9.70;9.40;;;15.10;99.90;;;;;;5048976;28;20238;-83
2022/09/13 07:22:55;;;;;;;9.40;9.10;;;15.20;99.90;;;;;;5072100;28;20326;-82
2022/09/13 07:25:23;;;;;;;9.50;9.20;;;15.30;99.90;;;;;;5073689;28;20219;-80
2022/09/13 07:27:53;;;;;;;9.57;9.27;;;15.40;99.90;;;;;;5067427;28;20449;-80
2022/09/13 07:30:24;;;;;;;9.65;9.35;;;15.40;99.90;;;;;;5078400;28;20249;-80
2022/09/13 07:33:00;;;;;;;9.18;8.88;;;15.50;99.90;;;;;;5067048;28;20237;-80
2022/09/13 07:35:33;;;;;;;9.40;9.10;;;15.60;99.90;;;;;;5063565;28;20282;-80
2022/09/13 07:38:00;;;;;;;9.50;9.20;;;15.70;99.90;;;;;;5066774;28;20244;-82
2022/09/13 07:40:32;;;;;;;9.60;9.30;;;15.80;99.90;;;;;;5074059;28;20236;-82
2022/09/13 07:42:59;;;;;;;9.15;8.90;;;15.80;99.90;;;;;;5067742;28;20242;-81
2022/09/13 07:45:28;;;;;;;9.30;9.00;;;15.90;99.90;;;;;;5075197;28;20241;-81
2022/09/13 07:47:57;;;;;;;9.48;9.18;;;16.00;99.90;;;;;;5081891;28;20265;-82
2022/09/13 07:50:28;;;;;;;9.40;9.10;;;16.10;99.90;;;;;;5081689;28;20265;-81
2022/09/13 07:52:56;;;;;;;9.60;9.30;;;16.20;99.90;;;;;;5081567;28;20284;-81
2022/09/13 07:55:25;;;;;;;9.70;9.40;;;16.30;99.90;;;;;;5080147;28;20578;-81
2022/09/13 07:57:55;;;;;;;9.65;9.35;;;16.40;99.90;;;;;;5080605;28;20226;-81
2022/09/13 08:00:24;;;;;;;9.80;9.50;;;16.50;99.90;;;;;;5080661;28;20226;-81
2022/09/13 08:02:54;;;;;;;9.73;9.43;;;16.60;99.90;;;;;;5079487;28;20329;-81
2022/09/13 08:05:23;;;;;;;10.02;9.73;;;16.80;99.90;;;;;;5080882;28;20226;-81
2022/09/13 08:07:55;;;;;;;9.98;9.68;;;16.90;99.90;;;;;;5082202;28;20226;-80
2022/09/13 08:10:23;;;;;;;9.95;9.65;;;17.00;99.90;;;;;;5081091;28;20254;-78
2022/09/13 08:12:51;;;;;;;9.88;9.57;;;17.10;99.90;;;;;;5081204;28;20230;-81
2022/09/13 08:15:21;;;;;;;9.70;9.40;;;17.20;99.90;;;;;;5080440;28;20288;-81
2022/09/13 08:17:50;;;;;;;9.90;9.60;;;17.30;99.90;;;;;;5063185;28;20257;-80
2022/09/13 08:20:20;;;;;;;9.95;9.65;;;17.40;99.90;;;;;;5060296;28;20710;-80
2022/09/13 08:22:49;;;;;;;9.95;9.65;;;17.50;99.90;;;;;;5060386;28;20334;-81
2022/09/13 08:25:30;;;;;;;10.15;9.85;;;17.60;99.90;;;;;;5061380;28;20230;-81
2022/09/13 08:27:57;;;;;;;10.00;9.70;;;17.70;99.90;;;;;;5061066;28;20235;-80
2022/09/13 08:30:31;;;;;;;9.98;9.68;;;17.80;99.90;;;;;;5061368;28;20365;-81
2022/09/13 08:33:06;;;;;;;10.13;9.82;;;17.80;99.90;;;;;;5061650;28;20223;-81
2022/09/13 08:35:34;;;;;;;10.18;9.88;;;17.90;99.90;;;;;;5060593;28;20229;-81
2022/09/13 08:38:03;;;;;;;9.90;9.60;;;18.00;99.90;;;;;;5061052;28;20325;-80
2022/09/13 08:40:45;;;;;;;10.25;9.95;;;18.10;99.90;;;;;;5060928;28;20263;-81
2022/09/13 08:43:22;;;;;;;10.45;10.15;;;18.40;99.90;;;;;;5046267;28;20249;-80
2022/09/13 08:45:56;;;;;;;10.60;10.30;;;18.50;99.90;;;;;;5038154;28;20227;-79
2022/09/13 08:48:31;;;;;;;10.23;9.93;;;18.70;99.90;;;;;;5041237;28;20248;-80
2022/09/13 08:51:07;;;;;;;9.90;9.60;;;19.00;99.90;;;;;;5041628;28;20317;-82
2022/09/13 08:53:46;;;;;;;10.38;10.07;;;19.30;99.90;;;;;;5041088;28;20227;-82
2022/09/13 08:56:24;;;;;;;10.00;9.70;;;19.40;99.90;;;;;;5040216;28;20327;-81
2022/09/13 08:59:12;;;;;;;9.75;9.45;;;19.60;99.90;;;;;;5041222;28;20231;-83
2022/09/13 09:02:00;;;;;;;9.80;9.50;;;19.80;99.90;;;;;;5041067;28;20224;-82
2022/09/13 09:04:45;;;;;;;10.25;9.95;;;19.90;99.90;;;;;;5050196;28;20257;-82
2022/09/13 09:07:17;;;;;;;10.30;10.00;;;20.00;99.90;;;;;;5051728;28;20255;-81
2022/09/13 09:09:52;;;;;;;10.15;9.85;;;20.00;99.90;;;;;;5050851;28;20248;-82
2022/09/13 09:12:34;;;;;;;10.38;10.07;;;20.10;99.90;;;;;;5045807;28;20241;-82
2022/09/13 09:15:11;;;;;;;10.30;10.00;;;20.20;99.90;;;;;;5045250;28;20239;-83
2022/09/13 09:17:50;;;;;;;10.50;10.20;;;20.30;99.90;;;;;;5045617;28;20227;-82
2022/09/13 09:20:26;;;;;;;10.10;9.80;;;20.50;99.90;;;;;;5046909;28;20239;-81
2022/09/13 09:22:56;;;;;;;10.70;10.40;;;20.70;99.90;;;;;;5048731;28;20330;-81
2022/09/13 09:25:26;;;;;;;10.38;10.07;;;20.80;99.90;;;;;;5047345;28;20242;-81
2022/09/13 09:28:05;;;;;;;10.68;10.38;;;20.80;99.90;;;;;;5047597;28;20240;-81
2022/09/13 09:30:46;;;;;;;10.27;9.98;;;20.90;99.90;;;;;;5045708;28;20235;-81
2022/09/13 09:33:39;;;;;;;10.90;10.60;;;20.90;99.90;;;;;;5046541;28;20235;-82
2022/09/13 09:36:18;;;;;;;10.40;10.10;;;20.90;99.90;;;;;;5046444;28;20238;-81
2022/09/13 09:38:46;;;;;;;10.75;10.45;;;21.00;99.90;;;;;;5051194;28;20295;-81
2022/09/13 09:41:34;;;;;;;10.52;10.23;;;21.10;99.90;;;;;;5050253;28;20295;-84
2022/09/13 09:44:19;;;;;;;10.60;10.30;;;21.20;99.90;;;;;;5047103;28;20235;-83
2022/09/13 09:46:55;;;;;;;10.68;10.38;;;21.30;99.90;;;;;;5045966;28;20232;-83
2022/09/13 09:52:27;;;;;;;10.52;10.23;;;21.20;99.90;;;;;;5045623;28;20224;-82
2022/09/13 09:55:11;;;;;;;10.60;10.30;;;21.20;99.90;;;;;;5044796;28;20310;-82
2022/09/13 09:57:56;;;;;;;10.32;10.02;;;21.20;99.90;;;;;;5044658;28;20250;-83
2022/09/13 10:00:52;;;;;;;10.20;9.90;;;21.20;99.90;;;;;;5047311;28;20267;-82
2022/09/13 10:03:21;;;;;;;10.23;9.93;;;21.10;99.90;;;;;;5046049;28;20243;-81
2022/09/13 10:05:52;;;;;;;10.10;9.80;;;21.00;99.90;;;;;;5045216;28;20277;-82
2022/09/13 10:08:29;;;;;;;10.25;9.95;;;21.00;99.90;;;;;;5045815;28;20232;-82
2022/09/13 10:11:01;;;;;;;10.70;10.40;;;20.80;99.90;;;;;;5045208;28;20231;-82
2022/09/13 10:13:31;;;;;;;10.18;9.88;;;20.80;99.90;;;;;;5045617;28;20228;-81
2022/09/13 10:16:03;;;;;;;10.27;9.98;;;20.80;99.90;;;;;;5045082;28;20231;-81
2022/09/13 10:18:35;;;;;;;10.60;10.30;;;20.80;99.90;;;;;;5044846;28;20266;-81
2022/09/13 10:21:06;;;;;;;10.35;10.05;;;20.70;99.90;;;;;;5045242;28;20227;-81
2022/09/13 10:23:38;;;;;;;10.52;10.23;;;20.70;99.90;;;;;;5046368;28;20243;-81
2022/09/13 10:26:13;;;;;;;10.65;10.35;;;20.60;99.90;;;;;;5045270;28;20235;-81
2022/09/13 10:28:53;;;;;;;10.40;10.10;;;20.50;99.90;;;;;;5046145;28;20448;-80
2022/09/13 10:31:30;;;;;;;10.50;10.20;;;20.40;99.90;;;;;;5043903;28;20227;-80
2022/09/13 10:34:01;;;;;;;10.20;9.90;;;20.30;99.90;;;;;;5044580;28;20227;-80
2022/09/13 10:36:39;;;;;;;10.48;10.18;;;20.30;99.90;;;;;;5044943;28;20235;-81
2022/09/13 10:39:16;;;;;;;10.55;10.25;;;20.40;99.90;;;;;;5044730;28;20326;-81
2022/09/13 10:41:49;;;;;;;10.50;10.20;;;20.50;99.90;;;;;;5045133;28;20219;-80
2022/09/13 10:44:34;;;;;;;10.40;10.10;;;20.60;99.90;;;;;;5049749;28;20258;-81
2022/09/13 10:47:12;;;;;;;10.65;10.35;;;20.60;99.90;;;;;;5058399;28;20241;-81
2022/09/13 10:49:51;;;;;;;10.70;10.40;;;20.80;99.90;;;;;;5060505;28;20247;-81
2022/09/13 10:52:37;;;;;;;10.90;10.60;;;21.00;99.90;;;;;;5060592;28;20208;-79
2022/09/13 10:55:34;;;;;;;10.40;10.10;;;21.20;99.90;;;;;;5060553;28;20215;-80
2022/09/13 10:58:20;;;;;;;10.32;10.02;;;21.40;99.90;;;;;;5061357;28;20223;-82
2022/09/13 11:01:45;;;;;;;10.43;10.13;;;21.70;99.90;;;;;;5061818;28;20227;-80
2022/09/13 11:05:05;;;;;;;10.15;9.85;;;22.00;99.90;;;;;;5059763;28;20219;-81
2022/09/13 11:08:00;;;;;;;10.60;10.30;;;22.30;99.90;;;;;;5060894;28;20223;-81
2022/09/13 11:10:38;;;;;;;10.40;10.10;;;22.60;99.90;;;;;;5060560;28;20323;-81
2022/09/13 11:13:16;;;;;;;10.40;10.10;;;22.90;99.90;;;;;;5060778;28;20605;-82
2022/09/13 11:15:57;;;;;;;10.50;10.20;;;22.90;99.90;;;;;;5059300;28;20218;-82
2022/09/13 11:19:09;;;;;;;10.60;10.30;;;23.20;99.90;;;;;;5059439;28;20235;-87
2022/09/13 11:21:54;;;;;;;10.70;10.40;;;23.30;99.90;;;;;;5055454;28;20227;-81
2022/09/13 11:24:51;;;;;;;10.30;10.00;;;23.20;99.90;;;;;;5059855;28;20287;-83
2022/09/13 11:27:32;;;;;;;10.60;10.30;;;23.20;99.90;;;;;;5058189;28;20215;-82
2022/09/13 11:30:17;;;;;;;10.48;10.18;;;23.20;99.90;;;;;;5052115;28;20234;-85
2022/09/13 11:33:06;;;;;;;10.50;10.20;;;23.10;99.90;;;;;;5054034;28;20239;-85
2022/09/13 11:35:59;;;;;;;10.38;10.07;;;23.00;99.90;;;;;;5047461;28;20220;-83
2022/09/13 11:38:56;;;;;;;9.90;9.60;;;23.00;99.90;;;;;;5046480;28;20266;-83
2022/09/13 11:41:43;;;;;;;10.10;9.80;;;23.00;99.90;;;;;;5052689;28;20291;-86
2022/09/13 11:44:39;;;;;;;10.30;10.00;;;22.80;99.90;;;;;;5044334;28;20303;-86
2022/09/13 11:47:18;;;;;;;10.13;9.82;;;22.80;99.90;;;;;;5044289;28;20294;-84
2022/09/13 11:50:20;;;;;;;9.85;9.55;;;22.90;99.90;;;;;;5066185;28;20301;-85
2022/09/13 11:53:09;;;;;;;10.00;9.70;;;22.70;99.90;;;;;;5065785;28;20234;-85
2022/09/13 11:56:13;;;;;;;9.90;9.60;;;22.60;99.90;;;;;;5064833;28;20392;-85
2022/09/13 11:58:51;;;;;;;9.65;9.35;;;22.60;99.90;;;;;;5069713;28;20231;-85
2022/09/13 12:01:28;;;;;;;9.60;9.30;;;22.40;99.90;;;;;;5064478;28;20221;-84
2022/09/13 12:04:07;;;;;;;9.70;9.40;;;22.30;99.90;;;;;;5067805;28;20234;-85
2022/09/13 12:06:44;;;;;;;9.80;9.50;;;22.40;99.90;;;;;;5074009;28;20227;-86
2022/09/13 12:09:17;;;;;;;9.88;9.57;;;22.40;99.90;;;;;;5065850;28;20273;-85
2022/09/13 12:11:53;;;;;;;9.88;9.57;;;22.30;99.90;;;;;;5066283;28;20277;-86
2022/09/13 12:14:24;;;;;;;8.93;8.73;;;22.30;99.90;;;;;;5066740;28;20294;-81
2022/09/13 12:16:59;;;;;;;9.15;8.85;;;22.20;99.90;;;;;;5065725;28;20230;-81
2022/09/13 12:19:31;;;;;;;9.10;8.80;;;22.10;99.90;;;;;;5064916;28;20244;-81
2022/09/13 12:22:01;;;;;;;8.90;8.70;;;22.00;99.90;;;;;;5064906;28;20314;-81
2022/09/13 12:24:37;;;;;;;8.80;8.60;;;22.00;99.90;;;;;;5065057;28;20245;-79
2022/09/13 12:30:06;;;;;;;9.25;8.95;;;22.00;99.90;;;;;;5120826;28;20561;-80
2022/09/13 12:32:34;;;;;;;9.20;8.90;;;22.00;99.90;;;;;;5105785;28;20285;-81
2022/09/13 12:35:08;;;;;;;8.80;8.60;;;22.00;99.90;;;;;;5102395;28;20233;-80
2022/09/13 12:38:09;;;;;;;8.60;8.40;;;22.10;99.90;;;;;;5106018;28;20285;-81
2022/09/13 12:40:57;;;;;;;8.80;8.60;;;22.20;99.90;;;;;;5105579;28;20259;-81
2022/09/13 12:43:52;;;;;;;9.00;8.80;;;22.30;99.90;;;;;;5114793;28;20283;-82
2022/09/13 12:46:54;;;;;;;9.10;8.80;;;22.40;99.90;;;;;;5113810;28;20221;-81
2022/09/13 12:49:50;;;;;;;8.95;8.75;;;22.50;99.90;;;;;;5078772;28;20268;-81
2022/09/13 12:52:32;;;;;;;9.00;8.80;;;22.50;99.90;;;;;;5101657;28;20241;-82
2022/09/13 12:55:45;;;;;;;9.40;9.10;;;22.50;99.90;;;;;;5106304;28;20233;-81
2022/09/13 12:58:47;;;;;;;9.40;9.10;;;22.60;99.90;;;;;;5104923;28;20225;-82
2022/09/13 13:01:18;;;;;;;9.50;9.20;;;22.50;99.90;;;;;;5104799;28;20257;-81
2022/09/13 13:03:54;;;;;;;9.43;9.13;;;22.50;99.90;;;;;;5099956;28;20325;-80
2022/09/13 13:06:35;;;;;;;9.30;9.00;;;22.40;99.90;;;;;;5101078;28;20229;-80
2022/09/13 13:09:20;;;;;;;9.70;9.40;;;22.40;99.90;;;;;;5101357;28;20229;-81
2022/09/13 13:11:52;;;;;;;9.50;9.20;;;22.40;99.90;;;;;;5100208;28;20213;-80
2022/09/13 13:14:45;;;;;;;9.70;9.40;;;22.40;99.90;;;;;;5100545;28;20544;-80
2022/09/13 13:17:48;;;;;;;9.80;9.50;;;22.40;99.90;;;;;;5101788;28;20233;-80
2022/09/13 13:23:41;;;;;;;9.32;9.02;;;22.50;99.90;;;;;;5160991;27;20558;-79
2022/09/13 13:26:12;;;;;;;9.60;9.30;;;22.60;99.90;;;;;;5140539;27;20228;-78
2022/09/13 13:29:17;;;;;;;9.60;9.30;;;22.70;99.90;;;;;;5140801;27;20240;-78
2022/09/13 13:32:14;;;;;;;9.43;9.13;;;22.70;99.90;;;;;;5141726;27;20200;-78
2022/09/13 13:34:49;;;;;;;9.80;9.50;;;22.90;99.90;;;;;;5138266;27;20258;-79
2022/09/13 13:37:34;;;;;;;9.98;9.68;;;23.00;99.90;;;;;;5141104;27;20233;-79
2022/09/13 13:40:24;;;;;;;9.50;9.20;;;23.10;99.90;;;;;;5140165;27;20230;-79
2022/09/13 13:43:30;;;;;;;9.70;9.40;;;23.10;99.90;;;;;;5143923;27;20232;-79
2022/09/13 13:46:26;;;;;;;10.00;9.70;;;23.10;99.90;;;;;;5123434;27;20257;-78
2022/09/13 13:48:55;;;;;;;9.57;9.27;;;23.10;99.90;;;;;;5139332;27;20239;-78
2022/09/13 13:51:29;;;;;;;9.40;9.10;;;23.20;99.90;;;;;;5138203;27;20232;-79
2022/09/13 13:54:05;;;;;;;9.45;9.15;;;23.20;99.90;;;;;;5140130;27;20236;-79
2022/09/13 13:56:48;;;;;;;9.30;9.00;;;23.20;99.90;;;;;;5139300;27;20236;-79
2022/09/13 13:59:26;;;;;;;9.00;8.80;;;23.10;99.90;;;;;;5140419;27;20258;-78
2022/09/13 14:02:01;;;;;;;9.50;9.20;;;23.10;99.90;;;;;;5140002;27;20236;-78
2022/09/13 14:05:09;;;;;;;8.90;8.70;;;23.00;99.90;;;;;;5138871;27;20224;-79